createdAt,value
2023-04-11T00:00:59.749Z,13.93
2023-04-11T00:03:29.020Z,16.77
2023-04-11T00:05:58.944Z,12.73
2023-04-11T00:08:27.147Z,13.32
2023-04-11T00:10:55.425Z,11.32
2023-04-11T00:13:24.392Z,15.07
2023-04-11T00:15:55.587Z,14.57
2023-04-11T00:18:25.583Z,11.50
2023-04-11T00:20:53.807Z,12.73
2023-04-11T00:23:23.502Z,15.90
2023-04-11T00:25:51.729Z,15.75
2023-04-11T00:28:20.031Z,12.82
2023-04-11T00:30:48.230Z,12.48
2023-04-11T00:33:16.704Z,14.32
2023-04-11T00:35:45.780Z,11.65
2023-04-11T00:38:13.953Z,14.13
2023-04-11T00:40:44.317Z,10.93
2023-04-11T00:43:12.551Z,12.13
2023-04-11T00:45:41.030Z,11.75
2023-04-11T00:48:09.292Z,10.05
2023-04-11T00:50:42.195Z,11.60
2023-04-11T00:53:12.002Z,11.07
2023-04-11T00:55:40.805Z,9.77
2023-04-11T00:58:10.613Z,12.27
2023-04-11T01:00:38.867Z,14.07
2023-04-11T01:03:08.479Z,10.80
2023-04-11T01:05:37.476Z,11.80
2023-04-11T01:08:06.307Z,11.52
2023-04-11T01:10:34.676Z,10.95
2023-04-11T01:13:03.568Z,9.50
2023-04-11T01:15:33.157Z,9.95
2023-04-11T01:18:02.120Z,11.27
2023-04-11T01:20:31.873Z,11.57
2023-04-11T01:23:02.443Z,10.60
2023-04-11T01:25:32.212Z,8.88
2023-04-11T01:28:00.718Z,10.77
2023-04-11T01:30:29.106Z,9.35
2023-04-11T01:32:57.454Z,9.20
2023-04-11T01:35:25.873Z,9.93
2023-04-11T01:37:54.129Z,13.02
2023-04-11T01:40:23.777Z,10.45
2023-04-11T01:42:53.937Z,8.95
2023-04-11T01:45:23.242Z,9.70
2023-04-11T01:47:54.630Z,9.65
2023-04-11T01:50:23.217Z,9.10
2023-04-11T01:52:52.081Z,8.13
2023-04-11T01:55:20.336Z,9.18
2023-04-11T01:57:48.643Z,8.27
2023-04-11T02:00:19.675Z,9.48
2023-04-11T02:05:16.415Z,8.05
2023-04-11T02:07:45.217Z,11.27
2023-04-11T02:10:13.513Z,8.23
2023-04-11T02:12:41.677Z,7.43
2023-04-11T02:15:10.372Z,8.48
2023-04-11T02:17:45.636Z,7.15
2023-04-11T02:20:14.751Z,8.60
2023-04-11T02:22:43.013Z,9.82
2023-04-11T02:25:11.447Z,6.80
2023-04-11T02:27:39.666Z,8.32
2023-04-11T02:30:08.958Z,6.82
2023-04-11T02:32:38.356Z,7.05
2023-04-11T02:35:08.852Z,10.00
2023-04-11T02:37:37.583Z,9.13
2023-04-11T02:40:06.638Z,8.18
2023-04-11T02:42:34.793Z,8.75
2023-04-11T02:45:03.823Z,6.82
2023-04-11T02:47:32.062Z,7.20
2023-04-11T02:50:00.330Z,9.00
2023-04-11T02:52:29.934Z,9.40
2023-04-11T02:54:58.286Z,8.77
2023-04-11T02:57:27.146Z,6.40
2023-04-11T02:59:55.268Z,7.35
2023-04-11T03:02:23.874Z,8.02
2023-04-11T03:04:52.412Z,8.05
2023-04-11T03:07:20.664Z,8.13
2023-04-11T03:09:50.542Z,7.13
2023-04-11T03:12:20.149Z,7.43
2023-04-11T03:14:48.314Z,8.20
2023-04-11T03:17:16.486Z,7.88
2023-04-11T03:19:44.664Z,6.10
2023-04-11T03:22:14.112Z,5.90
2023-04-11T03:24:42.841Z,7.00
2023-04-11T03:27:12.328Z,7.28
2023-04-11T03:29:40.757Z,7.15
2023-04-11T03:32:09.021Z,7.88
2023-04-11T03:34:37.168Z,8.75
2023-04-11T03:37:05.567Z,8.68
2023-04-11T03:39:33.893Z,5.97
2023-04-11T03:42:02.758Z,6.90
2023-04-11T03:44:32.410Z,5.90
2023-04-11T03:47:00.824Z,6.93
2023-04-11T03:49:29.007Z,6.53
2023-04-11T03:51:57.542Z,9.02
2023-04-11T03:54:25.730Z,7.47
2023-04-11T03:56:54.078Z,7.97
2023-04-11T03:59:22.256Z,8.82
2023-04-11T04:01:52.034Z,9.65
2023-04-11T04:04:20.529Z,9.30
2023-04-11T04:06:48.790Z,10.15
2023-04-11T04:09:17.305Z,7.60
2023-04-11T04:11:45.433Z,11.23
2023-04-11T04:14:13.651Z,10.00
2023-04-11T04:16:41.870Z,8.85
2023-04-11T04:19:11.447Z,10.00
2023-04-11T04:21:39.602Z,10.75
2023-04-11T04:24:08.079Z,8.85
2023-04-11T04:26:38.121Z,12.80
2023-04-11T04:29:06.323Z,11.05
2023-04-11T04:31:34.994Z,12.95
2023-04-11T04:34:08.651Z,11.35
2023-04-11T04:36:46.469Z,11.80
2023-04-11T04:39:18.053Z,12.40
2023-04-11T04:41:48.701Z,17.95
2023-04-11T04:44:17.425Z,13.13
2023-04-11T04:46:45.848Z,11.48
2023-04-11T04:49:14.012Z,13.40
2023-04-11T04:51:43.612Z,15.65
2023-04-11T04:54:11.918Z,11.85
2023-04-11T04:56:41.563Z,15.65
2023-04-11T04:59:14.634Z,13.18
2023-04-11T05:01:43.192Z,14.52
2023-04-11T05:04:11.761Z,12.32
2023-04-11T05:06:40.088Z,13.70
2023-04-11T05:09:09.731Z,13.77
2023-04-11T05:11:38.060Z,12.77
2023-04-11T05:14:06.266Z,13.43
2023-04-11T05:16:34.488Z,13.50
2023-04-11T05:19:02.645Z,14.13
2023-04-11T05:21:30.890Z,12.45
2023-04-11T05:23:59.166Z,13.88
2023-04-11T05:26:28.782Z,11.10
2023-04-11T05:28:57.103Z,14.15
2023-04-11T05:31:25.990Z,13.05
2023-04-11T05:33:54.623Z,13.85
2023-04-11T05:36:23.015Z,14.30
2023-04-11T05:38:51.301Z,14.57
2023-04-11T05:41:19.591Z,11.63
2023-04-11T05:43:49.290Z,12.23
2023-04-11T05:46:18.327Z,12.00
2023-04-11T05:48:46.552Z,12.48
2023-04-11T05:51:14.823Z,13.25
2023-04-11T05:53:43.974Z,13.40
2023-04-11T05:56:12.913Z,13.32
2023-04-11T05:58:43.355Z,15.25
2023-04-11T06:01:18.661Z,12.43
2023-04-11T06:03:47.518Z,12.52
2023-04-11T06:06:15.999Z,14.27
2023-04-11T06:08:44.303Z,13.27
2023-04-11T06:11:12.445Z,12.45
2023-04-11T06:13:40.750Z,12.65
2023-04-11T06:16:09.806Z,9.82
2023-04-11T06:18:39.519Z,11.10
2023-04-11T06:21:07.792Z,12.85
2023-04-11T06:23:36.026Z,9.73
2023-04-11T06:26:04.408Z,11.02
2023-04-11T06:28:32.674Z,13.02
2023-04-11T06:31:00.860Z,23.30
2023-04-11T06:33:29.151Z,17.75
2023-04-11T06:35:58.698Z,15.60
2023-04-11T06:38:26.982Z,21.00
2023-04-11T06:40:58.399Z,14.52
2023-04-11T06:43:26.613Z,14.93
2023-04-11T06:45:54.941Z,9.20
2023-04-11T06:48:24.398Z,8.10
2023-04-11T06:50:52.757Z,12.02
2023-04-11T06:53:22.449Z,13.82
2023-04-11T06:55:50.875Z,9.07
2023-04-11T06:58:19.194Z,12.57
2023-04-11T07:00:47.352Z,8.52
2023-04-11T07:03:15.713Z,12.23
2023-04-11T07:05:44.189Z,9.43
2023-04-11T07:08:12.398Z,9.38
2023-04-11T07:10:42.075Z,11.07
2023-04-11T07:13:10.297Z,11.95
2023-04-11T07:15:38.461Z,8.40
2023-04-11T07:18:06.807Z,12.43
2023-04-11T07:20:36.173Z,11.55
2023-04-11T07:23:04.537Z,14.45
2023-04-11T07:25:33.659Z,10.60
2023-04-11T07:28:07.510Z,16.08
2023-04-11T07:30:36.719Z,17.00
2023-04-11T07:33:05.351Z,13.25
2023-04-11T07:35:34.787Z,9.55
2023-04-11T07:38:03.575Z,19.70
2023-04-11T07:40:32.077Z,14.68
2023-04-11T07:43:01.829Z,19.05
2023-04-11T07:45:31.687Z,15.77
2023-04-11T07:48:00.029Z,18.90
2023-04-11T07:50:28.293Z,17.00
2023-04-11T07:52:57.696Z,25.70
2023-04-11T07:55:25.849Z,22.92
2023-04-11T07:57:54.027Z,18.48
2023-04-11T08:00:25.057Z,19.42
2023-04-11T08:05:23.143Z,28.30
2023-04-11T08:07:51.594Z,30.38
2023-04-11T08:10:19.878Z,28.27
2023-04-11T08:12:48.252Z,39.70
2023-04-11T08:15:16.797Z,37.92
2023-04-11T08:17:45.579Z,20.63
2023-04-11T08:20:15.297Z,23.00
2023-04-11T08:22:44.881Z,26.50
2023-04-11T08:25:14.010Z,41.30
2023-04-11T08:27:42.626Z,21.55
2023-04-11T08:30:11.180Z,27.65
2023-04-11T08:32:39.830Z,30.13
2023-04-11T08:35:08.805Z,29.10
2023-04-11T08:37:38.310Z,42.17
2023-04-11T08:40:08.454Z,41.72
2023-04-11T08:42:36.907Z,35.10
2023-04-11T08:45:08.711Z,34.40
2023-04-11T08:47:37.764Z,32.97
2023-04-11T08:50:07.124Z,45.17
2023-04-11T08:52:38.925Z,32.67
2023-04-11T08:55:07.663Z,36.00
2023-04-11T08:57:38.319Z,22.83
2023-04-11T09:00:13.549Z,24.08
2023-04-11T09:02:58.192Z,29.73
2023-04-11T09:05:27.983Z,32.42
2023-04-11T09:07:59.106Z,26.88
2023-04-11T09:12:56.320Z,28.65
2023-04-11T09:15:25.924Z,30.50
2023-04-11T09:17:54.546Z,68.60
2023-04-11T09:20:26.227Z,49.92
2023-04-11T09:22:55.572Z,33.47
2023-04-11T09:25:25.581Z,39.75
2023-04-11T09:28:09.896Z,38.42
2023-04-11T09:30:38.233Z,30.95
2023-04-11T09:33:22.628Z,40.28
2023-04-11T09:35:53.072Z,16.73
2023-04-11T09:38:32.169Z,16.63
2023-04-11T09:41:02.526Z,25.85
2023-04-11T09:43:50.551Z,21.25
2023-04-11T09:46:21.080Z,22.42
2023-04-11T09:48:50.035Z,18.15
2023-04-11T09:51:34.155Z,28.15
2023-04-11T09:54:04.885Z,14.98
2023-04-11T09:56:35.686Z,27.83
2023-04-11T09:59:05.594Z,13.23
2023-04-11T10:01:34.234Z,13.95
2023-04-11T10:04:04.496Z,13.10
2023-04-11T10:06:38.571Z,10.23
2023-04-11T10:09:09.666Z,18.20
2023-04-11T10:11:43.062Z,10.50
2023-04-11T10:14:31.467Z,11.65
2023-04-11T10:17:19.821Z,17.45
2023-04-11T10:19:51.638Z,12.57
2023-04-11T10:22:56.121Z,11.50
2023-04-11T10:25:25.339Z,13.82
2023-04-11T10:28:00.633Z,15.40
2023-04-11T10:31:00.520Z,10.05
2023-04-11T10:33:28.966Z,15.57
2023-04-11T10:35:58.923Z,10.43
2023-04-11T10:38:47.351Z,9.77
2023-04-11T10:41:17.509Z,9.45
2023-04-11T10:43:47.588Z,6.30
2023-04-11T10:46:20.001Z,14.65
2023-04-11T10:49:08.771Z,11.45
2023-04-11T10:51:37.063Z,12.75
2023-04-11T10:54:05.771Z,11.48
2023-04-11T10:56:57.949Z,11.82
2023-04-11T11:00:13.079Z,9.13
2023-04-11T11:02:43.145Z,11.70
2023-04-11T11:05:22.549Z,7.95
2023-04-11T11:07:52.731Z,10.52
2023-04-11T11:10:40.480Z,6.47
2023-04-11T11:13:08.939Z,9.55
2023-04-11T11:15:38.996Z,5.63
2023-04-11T11:18:10.152Z,8.18
2023-04-11T11:20:38.831Z,7.93
2023-04-11T11:23:09.029Z,8.50
2023-04-11T11:25:37.564Z,7.00
2023-04-11T11:28:07.959Z,9.95
2023-04-11T11:30:38.429Z,11.10
2023-04-11T11:33:17.878Z,9.20
2023-04-11T11:35:52.065Z,10.82
2023-04-11T11:38:21.160Z,9.40
2023-04-11T11:40:50.007Z,9.80
2023-04-11T11:43:18.360Z,8.27
2023-04-11T11:45:48.615Z,6.55
2023-04-11T11:48:24.148Z,10.23
2023-04-11T11:50:57.943Z,8.88
2023-04-11T11:53:27.053Z,16.33
2023-04-11T11:55:56.899Z,9.32
2023-04-11T11:58:26.277Z,11.45
2023-04-11T12:00:56.039Z,16.10
2023-04-11T12:03:25.700Z,13.98
2023-04-11T12:05:58.259Z,12.32
2023-04-11T12:08:27.287Z,14.88
2023-04-11T12:10:55.562Z,12.05
2023-04-11T12:13:27.210Z,15.15
2023-04-11T12:15:59.124Z,11.68
2023-04-11T12:18:29.497Z,8.20
2023-04-11T12:20:58.727Z,15.47
2023-04-11T12:23:26.947Z,18.45
2023-04-11T12:25:55.263Z,9.85
2023-04-11T12:28:23.477Z,14.07
2023-04-11T12:30:51.913Z,7.47
2023-04-11T12:33:22.180Z,9.63
2023-04-11T12:35:50.647Z,5.90
2023-04-11T12:38:18.910Z,6.47
2023-04-11T12:40:47.467Z,9.60
2023-04-11T12:43:15.829Z,9.55
2023-04-11T12:45:44.186Z,9.95
2023-04-11T12:48:12.681Z,8.68
2023-04-11T12:50:42.374Z,10.93
2023-04-11T12:53:10.794Z,5.65
2023-04-11T12:55:39.103Z,9.68
2023-04-11T12:58:08.270Z,11.75
2023-04-11T13:00:36.480Z,9.45
2023-04-11T13:03:06.151Z,8.10
2023-04-11T13:05:34.574Z,9.68
2023-04-11T13:08:04.159Z,8.32
2023-04-11T13:10:32.374Z,9.13
2023-04-11T13:13:08.486Z,9.23
2023-04-11T13:15:46.332Z,8.25
2023-04-11T13:18:14.563Z,7.07
2023-04-11T13:20:42.785Z,8.63
2023-04-11T13:23:13.695Z,6.75
2023-04-11T13:25:43.127Z,5.40
2023-04-11T13:28:11.389Z,8.30
2023-04-11T13:30:41.088Z,7.90
2023-04-11T13:33:09.409Z,10.55
2023-04-11T13:35:37.668Z,7.75
2023-04-11T13:38:06.270Z,6.88
2023-04-11T13:40:36.249Z,7.57
2023-04-11T13:43:04.455Z,7.00
2023-04-11T13:45:32.734Z,10.27
2023-04-11T13:48:01.126Z,12.85
2023-04-11T13:50:29.388Z,7.13
2023-04-11T13:52:57.911Z,5.28
2023-04-11T13:55:26.135Z,12.30
2023-04-11T13:57:55.808Z,9.57
2023-04-11T14:00:24.271Z,5.40
2023-04-11T14:02:52.854Z,5.97
2023-04-11T14:05:21.184Z,10.93
2023-04-11T14:07:49.633Z,7.97
2023-04-11T14:10:17.955Z,6.78
2023-04-11T14:12:46.209Z,13.98
2023-04-11T14:15:15.836Z,12.15
2023-04-11T14:17:46.819Z,10.30
2023-04-11T14:22:44.166Z,9.23
2023-04-11T14:25:13.374Z,8.00
2023-04-11T14:27:42.382Z,6.50
2023-04-11T14:30:11.807Z,6.95
2023-04-11T14:32:41.791Z,8.48
2023-04-11T14:35:10.458Z,13.30
2023-04-11T14:37:38.743Z,10.00
2023-04-11T14:40:10.994Z,8.98
2023-04-11T14:42:39.631Z,12.93
2023-04-11T14:45:09.093Z,12.02
2023-04-11T14:47:37.382Z,5.18
2023-04-11T14:50:08.378Z,5.75
2023-04-11T14:55:04.728Z,5.60
2023-04-11T14:57:54.788Z,12.90
2023-04-11T15:00:24.967Z,7.97
2023-04-11T15:02:55.089Z,4.77
2023-04-11T15:05:25.088Z,10.45
2023-04-11T15:07:54.303Z,10.88
2023-04-11T15:10:24.451Z,12.25
2023-04-11T15:12:52.636Z,6.27
2023-04-11T15:15:20.810Z,8.88
2023-04-11T15:17:50.586Z,6.95
2023-04-11T15:20:20.141Z,7.30
2023-04-11T15:22:49.761Z,5.13
2023-04-11T15:25:18.023Z,6.97
2023-04-11T15:27:46.763Z,7.75
2023-04-11T15:30:15.360Z,5.80
2023-04-11T15:32:44.632Z,4.55
2023-04-11T15:35:13.006Z,4.72
2023-04-11T15:37:41.316Z,9.27
2023-04-11T15:40:12.586Z,6.10
2023-04-11T15:42:40.824Z,5.63
2023-04-11T15:45:09.969Z,4.88
2023-04-11T15:47:38.304Z,5.82
2023-04-11T15:50:07.397Z,5.93
2023-04-11T15:52:35.696Z,5.38
2023-04-11T15:55:03.857Z,5.70
2023-04-11T15:57:33.744Z,6.90
2023-04-11T16:00:02.284Z,5.45
2023-04-11T16:02:30.860Z,7.43
2023-04-11T16:05:01.289Z,3.45
2023-04-11T16:07:29.724Z,3.75
2023-04-11T16:09:57.937Z,6.53
2023-04-11T16:12:26.229Z,6.40
2023-04-11T16:14:55.812Z,5.18
2023-04-11T16:17:24.047Z,7.00
2023-04-11T16:19:53.466Z,5.38
2023-04-11T16:22:21.796Z,7.03
2023-04-11T16:24:50.043Z,4.80
2023-04-11T16:27:18.881Z,4.32
2023-04-11T16:29:47.126Z,3.53
2023-04-11T16:32:16.741Z,8.95
2023-04-11T16:34:44.974Z,5.55
2023-04-11T16:37:13.253Z,6.85
2023-04-11T16:39:41.410Z,5.50
2023-04-11T16:42:09.548Z,7.47
2023-04-11T16:44:37.856Z,7.72
2023-04-11T16:47:06.131Z,7.05
2023-04-11T16:49:36.163Z,5.45
2023-04-11T16:52:04.799Z,4.47
2023-04-11T16:54:32.951Z,4.43
2023-04-11T16:57:01.530Z,4.60
2023-04-11T16:59:30.415Z,7.22
2023-04-11T17:01:58.791Z,4.45
2023-04-11T17:04:27.244Z,4.00
2023-04-11T17:06:57.491Z,5.45
2023-04-11T17:09:25.706Z,6.93
2023-04-11T17:11:54.034Z,4.60
2023-04-11T17:14:22.248Z,5.68
2023-04-11T17:16:50.904Z,4.20
2023-04-11T17:19:19.198Z,6.15
2023-04-11T17:21:47.438Z,4.25
2023-04-11T17:24:17.066Z,4.85
2023-04-11T17:26:45.452Z,3.83
2023-04-11T17:29:13.925Z,4.68
2023-04-11T17:31:44.617Z,4.47
2023-04-11T17:34:17.868Z,7.13
2023-04-11T17:36:47.095Z,4.53
2023-04-11T17:39:18.179Z,5.00
2023-04-11T17:41:46.744Z,4.10
2023-04-11T17:44:15.335Z,5.22
2023-04-11T17:46:43.748Z,3.75
2023-04-11T17:49:12.045Z,5.95
2023-04-11T17:51:48.896Z,3.55
2023-04-11T17:54:22.090Z,3.88
2023-04-11T17:56:50.765Z,3.40
2023-04-11T17:59:19.321Z,4.57
2023-04-11T18:01:47.576Z,4.30
2023-04-11T18:04:16.004Z,4.15
2023-04-11T18:06:46.298Z,3.83
2023-04-11T18:09:15.648Z,5.43
2023-04-11T18:11:45.231Z,3.40
2023-04-11T18:14:13.453Z,3.97
2023-04-11T18:16:41.668Z,3.80
2023-04-11T18:19:09.900Z,3.63
2023-04-11T18:21:39.785Z,5.13
2023-04-11T18:24:08.400Z,3.58
2023-04-11T18:26:36.591Z,3.72
2023-04-11T18:29:06.851Z,4.00
2023-04-11T18:31:35.300Z,4.87
2023-04-11T18:34:06.106Z,3.33
2023-04-11T18:36:35.457Z,2.28
2023-04-11T18:39:04.007Z,5.93
2023-04-11T18:41:32.481Z,3.95
2023-04-11T18:44:02.250Z,4.57
2023-04-11T18:46:34.185Z,4.40
2023-04-11T18:49:04.877Z,3.42
2023-04-11T18:51:35.535Z,5.40
2023-04-11T18:54:03.741Z,4.18
2023-04-11T18:56:35.110Z,3.00
2023-04-11T18:59:09.324Z,3.53
2023-04-11T19:01:39.887Z,2.40
2023-04-11T19:04:09.755Z,4.82
2023-04-11T19:06:37.988Z,3.80
2023-04-11T19:09:06.202Z,6.18
2023-04-11T19:11:35.068Z,4.30
2023-04-11T19:14:03.558Z,4.38
2023-04-11T19:16:32.246Z,4.82
2023-04-11T19:19:02.109Z,3.53
2023-04-11T19:21:30.441Z,3.65
2023-04-11T19:23:59.375Z,3.42
2023-04-11T19:26:27.726Z,3.15
2023-04-11T19:28:56.336Z,4.05
2023-04-11T19:31:26.436Z,3.13
2023-04-11T19:33:55.070Z,2.90
2023-04-11T19:36:24.976Z,2.65
2023-04-11T19:38:53.256Z,3.78
2023-04-11T19:41:21.486Z,3.45
2023-04-11T19:43:49.810Z,4.22
2023-04-11T19:46:18.528Z,3.33
2023-04-11T19:48:47.171Z,3.63
2023-04-11T19:51:16.772Z,4.35
2023-04-11T19:53:46.545Z,3.75
2023-04-11T19:56:16.654Z,3.78
2023-04-11T19:58:44.851Z,4.97
2023-04-11T20:01:13.156Z,2.58
2023-04-11T20:03:41.709Z,3.15
2023-04-11T20:06:12.382Z,3.97
2023-04-11T20:08:41.037Z,3.35
2023-04-11T20:11:14.929Z,2.53
2023-04-11T20:13:43.196Z,2.58
2023-04-11T20:16:11.751Z,4.05
2023-04-11T20:18:39.976Z,3.45
2023-04-11T20:21:09.409Z,2.30
2023-04-11T20:23:37.640Z,4.00
2023-04-11T20:26:06.122Z,3.42
2023-04-11T20:28:36.494Z,4.20
2023-04-11T20:31:05.178Z,2.60
2023-04-11T20:33:33.454Z,2.95
2023-04-11T20:36:03.362Z,2.70
2023-04-11T20:38:32.072Z,2.72
2023-04-11T20:41:03.695Z,4.50
2023-04-11T20:43:32.912Z,3.17
2023-04-11T20:46:04.052Z,2.30
2023-04-11T20:48:32.223Z,3.33
2023-04-11T20:51:01.897Z,2.70
2023-04-11T20:53:30.318Z,3.25
2023-04-11T20:55:58.610Z,3.65
2023-04-11T20:58:28.496Z,2.42
2023-04-11T21:00:56.709Z,4.53
2023-04-11T21:03:31.071Z,4.35
2023-04-11T21:05:59.510Z,2.92
2023-04-11T21:08:27.778Z,4.65
2023-04-11T21:10:56.114Z,4.00
2023-04-11T21:13:24.347Z,2.50
2023-04-11T21:15:52.640Z,3.95
2023-04-11T21:18:20.746Z,3.15
2023-04-11T21:20:50.631Z,2.90
2023-04-11T21:23:18.896Z,3.90
2023-04-11T21:25:47.150Z,3.53
2023-04-11T21:28:15.700Z,3.67
2023-04-11T21:30:43.906Z,3.35
2023-04-11T21:33:12.131Z,3.67
2023-04-11T21:35:40.289Z,4.80
2023-04-11T21:38:12.452Z,3.28
2023-04-11T21:40:40.624Z,4.05
2023-04-11T21:43:08.818Z,4.40
2023-04-11T21:45:37.140Z,4.53
2023-04-11T21:48:05.645Z,3.35
2023-04-11T21:50:34.006Z,3.42
2023-04-11T21:53:02.255Z,3.90
2023-04-11T21:55:31.912Z,4.47
2023-04-11T21:58:00.116Z,2.38
2023-04-11T22:00:28.428Z,2.80
2023-04-11T22:02:56.795Z,2.97
2023-04-11T22:05:26.288Z,3.70
2023-04-11T22:08:11.350Z,2.95
2023-04-11T22:10:47.776Z,2.88
2023-04-11T22:13:18.066Z,3.45
2023-04-11T22:15:48.950Z,3.08
2023-04-11T22:20:46.203Z,2.65
2023-04-11T22:23:17.847Z,3.22
2023-04-11T22:25:49.593Z,4.97
2023-04-11T22:28:18.317Z,3.05
2023-04-11T22:30:48.519Z,4.50
2023-04-11T22:33:17.320Z,4.00
2023-04-11T22:35:47.674Z,3.17
2023-04-11T22:38:16.845Z,3.58
2023-04-11T22:40:46.500Z,3.42
2023-04-11T22:43:14.638Z,3.05
2023-04-11T22:45:43.037Z,3.33
2023-04-11T22:48:13.897Z,3.90
2023-04-11T22:50:43.760Z,2.97
2023-04-11T22:53:13.917Z,4.15
2023-04-11T22:55:42.409Z,3.93
2023-04-11T22:58:12.008Z,3.10
2023-04-11T23:00:40.267Z,4.28
2023-04-11T23:03:08.613Z,3.67
2023-04-11T23:05:39.503Z,4.35
2023-04-11T23:08:07.824Z,4.18
2023-04-11T23:10:36.156Z,3.53
2023-04-11T23:13:04.421Z,3.67
2023-04-11T23:15:34.301Z,4.35
2023-04-11T23:18:02.526Z,4.05
2023-04-11T23:20:31.053Z,3.55
2023-04-11T23:22:59.286Z,3.47
2023-04-11T23:25:28.292Z,4.10
2023-04-11T23:27:56.576Z,3.33
2023-04-11T23:30:26.147Z,4.20
2023-04-11T23:32:55.737Z,5.18
2023-04-11T23:35:24.150Z,4.03
2023-04-11T23:37:52.548Z,4.93
2023-04-11T23:40:21.444Z,4.38
2023-04-11T23:42:49.714Z,3.15
2023-04-11T23:45:22.479Z,3.80
2023-04-11T23:47:51.163Z,3.38
2023-04-11T23:50:20.716Z,3.90
2023-04-11T23:52:49.304Z,3.75
2023-04-11T23:55:17.653Z,2.72
2023-04-11T23:57:45.779Z,2.88
